Time;durP1;ratioP1;P1;durP2;ratioP2;P2;SDS_P1;SDS_P2;PMS_P1;PMS_P2;Temp;Humidity;BMP_temperature;BMP_pressure;BME280_temperature;BME280_humidity;BME280_pressure;Samples;Min_cycle;Max_cycle;Signal;HPM_P1;HPM_P2
2023/02/04 00:01:34;;;;;;;7.32;0.90;;;10.00;99.90;;;;;;4969785;28;20027;-72
2023/02/04 00:04:00;;;;;;;3.45;1.25;;;10.00;99.90;;;;;;4956523;28;20398;-72
2023/02/04 00:06:26;;;;;;;4.35;1.40;;;10.00;99.90;;;;;;4970799;28;20027;-72
2023/02/04 00:08:52;;;;;;;5.18;0.98;;;10.00;99.90;;;;;;4974164;28;20098;-72
2023/02/04 00:11:18;;;;;;;3.55;1.08;;;10.00;99.90;;;;;;4970670;28;20226;-72
2023/02/04 00:13:44;;;;;;;3.13;1.38;;;9.90;99.90;;;;;;4956480;28;20061;-72
2023/02/04 00:16:09;;;;;;;3.03;0.90;;;9.90;99.90;;;;;;4956024;28;20030;-72
2023/02/04 00:18:35;;;;;;;6.47;1.63;;;9.90;99.90;;;;;;4956748;28;20089;-72
2023/02/04 00:21:01;;;;;;;2.03;1.70;;;9.90;99.90;;;;;;4956136;28;20058;-72
2023/02/04 00:23:26;;;;;;;6.57;1.30;;;9.90;99.90;;;;;;4973547;28;20114;-72
2023/02/04 00:25:52;;;;;;;10.10;1.67;;;9.90;99.90;;;;;;4972779;28;20039;-72
2023/02/04 00:28:18;;;;;;;5.43;1.02;;;9.90;99.90;;;;;;4973761;28;20041;-72
2023/02/04 00:30:44;;;;;;;2.22;1.17;;;9.90;99.90;;;;;;4970553;28;20042;-72
2023/02/04 00:33:09;;;;;;;2.40;0.73;;;9.90;99.90;;;;;;4956379;28;20066;-73
2023/02/04 00:35:38;;;;;;;3.08;1.35;;;9.90;99.90;;;;;;4955110;28;20089;-72
2023/02/04 00:38:05;;;;;;;3.47;1.17;;;9.90;99.90;;;;;;4973310;28;20086;-72
2023/02/04 00:40:31;;;;;;;1.48;0.77;;;9.90;99.90;;;;;;4955821;28;20081;-72
2023/02/04 00:42:58;;;;;;;0.98;0.57;;;9.90;99.90;;;;;;4973430;28;20050;-72
2023/02/04 00:45:24;;;;;;;5.93;0.70;;;9.90;99.90;;;;;;4955501;28;20553;-72
2023/02/04 00:47:49;;;;;;;4.68;1.15;;;9.80;99.90;;;;;;4973542;28;20027;-72
2023/02/04 00:50:16;;;;;;;2.85;0.73;;;9.90;99.90;;;;;;4970367;28;20055;-73
2023/02/04 00:52:42;;;;;;;1.42;0.70;;;9.90;99.90;;;;;;4973258;28;20034;-73
2023/02/04 00:55:09;;;;;;;3.78;1.23;;;9.80;99.90;;;;;;4969538;28;20035;-74
2023/02/04 00:57:35;;;;;;;0.80;0.50;;;9.80;99.90;;;;;;4956167;28;20074;-73
2023/02/04 01:00:00;;;;;;;2.00;0.73;;;9.80;99.90;;;;;;4972315;28;20058;-74
2023/02/04 01:02:26;;;;;;;2.83;0.65;;;9.80;99.90;;;;;;4973221;28;20511;-74
2023/02/04 01:04:52;;;;;;;1.50;0.63;;;9.80;99.90;;;;;;4970100;28;20047;-73
2023/02/04 01:07:17;;;;;;;5.82;1.08;;;9.80;99.90;;;;;;4972552;28;20033;-73
2023/02/04 01:09:43;;;;;;;5.07;1.10;;;9.80;99.90;;;;;;4971110;28;20030;-73
2023/02/04 01:12:09;;;;;;;6.95;0.68;;;9.80;99.90;;;;;;4971482;28;20039;-74
2023/02/04 01:14:35;;;;;;;4.55;1.13;;;9.80;99.90;;;;;;4971845;28;20104;-73
2023/02/04 01:17:00;;;;;;;0.93;0.70;;;9.80;99.90;;;;;;4970623;28;20169;-73
2023/02/04 01:19:26;;;;;;;0.60;0.43;;;9.90;99.90;;;;;;4956233;28;20045;-73
2023/02/04 01:21:52;;;;;;;2.00;0.98;;;9.80;99.90;;;;;;4955339;28;20478;-74
2023/02/04 01:24:17;;;;;;;5.50;1.30;;;9.80;99.90;;;;;;4972502;28;20485;-73
2023/02/04 01:26:43;;;;;;;4.07;0.50;;;9.80;99.90;;;;;;4968986;28;20130;-74
2023/02/04 01:29:09;;;;;;;5.22;1.58;;;9.80;99.90;;;;;;4972813;28;20047;-74
2023/02/04 01:31:35;;;;;;;1.35;0.70;;;9.80;99.90;;;;;;4968959;28;20030;-74
2023/02/04 01:34:01;;;;;;;1.98;0.73;;;9.70;99.90;;;;;;4972467;28;20035;-73
2023/02/04 01:36:26;;;;;;;3.30;1.08;;;9.70;99.90;;;;;;4971678;28;20398;-73
2023/02/04 01:38:52;;;;;;;4.88;0.88;;;9.70;99.90;;;;;;4972535;28;20670;-73
2023/02/04 01:41:18;;;;;;;7.13;2.47;;;9.70;99.90;;;;;;4969174;28;20034;-73
2023/02/04 01:43:49;;;;;;;2.35;1.17;;;9.70;99.90;;;;;;4954959;28;20134;-74
2023/02/04 01:46:15;;;;;;;3.15;1.58;;;9.60;99.90;;;;;;4954511;28;20559;-74
2023/02/04 01:48:41;;;;;;;2.47;1.30;;;9.60;99.90;;;;;;4955187;28;20038;-73
2023/02/04 01:51:11;;;;;;;3.00;1.02;;;9.60;99.90;;;;;;4971458;28;20038;-73
2023/02/04 01:53:38;;;;;;;7.05;2.78;;;9.70;99.90;;;;;;4955117;28;20090;-73
2023/02/04 01:56:19;;;;;;;5.50;1.02;;;9.60;99.90;;;;;;4954668;28;20066;-74
2023/02/04 01:58:47;;;;;;;6.80;1.80;;;9.60;99.90;;;;;;4955164;28;20066;-73
2023/02/04 02:01:32;;;;;;;7.03;1.15;;;9.60;99.90;;;;;;4954738;28;20054;-73
2023/02/04 02:03:59;;;;;;;5.10;1.20;;;9.60;99.90;;;;;;4970623;28;20046;-73
2023/02/04 02:06:25;;;;;;;7.10;1.45;;;9.50;99.90;;;;;;4947039;28;20038;-73
2023/02/04 02:08:51;;;;;;;6.47;1.27;;;9.50;99.90;;;;;;4971477;28;20616;-73
2023/02/04 02:11:17;;;;;;;2.67;1.33;;;9.50;99.90;;;;;;4939583;28;20034;-74
2023/02/04 02:13:42;;;;;;;3.97;0.73;;;9.50;99.90;;;;;;4971574;28;20398;-73
2023/02/04 02:16:08;;;;;;;5.35;1.23;;;9.50;99.90;;;;;;4968580;28;20071;-73
2023/02/04 02:18:34;;;;;;;12.23;1.65;;;9.50;99.90;;;;;;4938703;28;20042;-74
2023/02/04 02:21:07;;;;;;;11.95;1.90;;;9.50;99.90;;;;;;4954161;28;20097;-73
2023/02/04 02:23:56;;;;;;;7.18;1.52;;;9.50;99.90;;;;;;4956096;28;20061;-73
2023/02/04 02:26:23;;;;;;;4.85;0.77;;;9.50;99.90;;;;;;4974644;28;20019;-73
2023/02/04 02:28:49;;;;;;;7.68;1.23;;;9.40;99.90;;;;;;4975875;28;20097;-73
2023/02/04 02:31:18;;;;;;;4.82;1.92;;;9.40;99.90;;;;;;4958336;28;20121;-73
2023/02/04 02:33:45;;;;;;;10.25;1.45;;;9.40;99.90;;;;;;4958440;28;20516;-73
2023/02/04 02:36:11;;;;;;;3.22;1.58;;;9.40;99.90;;;;;;4942006;28;20038;-73
2023/02/04 02:38:38;;;;;;;1.58;1.00;;;9.40;99.90;;;;;;4975645;28;20031;-73
2023/02/04 02:41:05;;;;;;;3.53;1.70;;;9.40;99.90;;;;;;4957982;28;20038;-73
2023/02/04 02:43:31;;;;;;;5.45;1.35;;;9.40;99.90;;;;;;4958227;28;20023;-73
2023/02/04 02:45:59;;;;;;;7.45;1.42;;;9.30;99.90;;;;;;4957798;28;20046;-74
2023/02/04 02:48:25;;;;;;;5.97;1.23;;;9.30;99.90;;;;;;4958412;28;20027;-74
2023/02/04 02:50:52;;;;;;;5.40;1.13;;;9.30;99.90;;;;;;4972454;28;20046;-73
2023/02/04 02:53:20;;;;;;;11.00;1.02;;;9.30;99.90;;;;;;4975124;28;20042;-73
2023/02/04 02:55:46;;;;;;;1.65;0.90;;;9.30;99.90;;;;;;4957538;28;20035;-74
2023/02/04 02:58:31;;;;;;;5.05;0.85;;;9.30;99.90;;;;;;4958380;28;20070;-73
2023/02/04 03:00:58;;;;;;;5.65;1.98;;;9.20;99.90;;;;;;4958084;28;20056;-74
2023/02/04 03:03:32;;;;;;;4.93;0.95;;;9.30;99.90;;;;;;4958095;28;20085;-73
2023/02/04 03:06:12;;;;;;;7.28;1.42;;;9.30;99.90;;;;;;4957444;28;20031;-73
2023/02/04 03:08:39;;;;;;;6.82;1.77;;;9.10;99.90;;;;;;4975310;28;20035;-74
2023/02/04 03:11:05;;;;;;;6.72;1.42;;;9.10;99.90;;;;;;4971705;28;20055;-74
2023/02/04 03:13:32;;;;;;;6.63;1.27;;;9.10;99.90;;;;;;4974802;28;20089;-74
2023/02/04 03:15:59;;;;;;;4.05;1.15;;;9.10;99.90;;;;;;4956860;28;20039;-74
2023/02/04 03:18:25;;;;;;;9.55;1.42;;;9.10;99.90;;;;;;4974973;28;20038;-73
2023/02/04 03:20:51;;;;;;;3.15;1.08;;;9.10;99.90;;;;;;4971816;28;20039;-74
2023/02/04 03:23:19;;;;;;;7.85;1.65;;;9.10;99.90;;;;;;4974745;28;20038;-73
2023/02/04 03:25:45;;;;;;;4.95;1.02;;;9.00;99.90;;;;;;4956888;28;20031;-74
2023/02/04 03:28:10;;;;;;;5.90;1.67;;;9.10;99.90;;;;;;4941553;28;20033;-74
2023/02/04 03:30:36;;;;;;;6.82;1.50;;;9.00;99.90;;;;;;4937910;29;20035;-74
2023/02/04 03:33:02;;;;;;;2.72;1.50;;;9.00;99.90;;;;;;4972187;28;20525;-73
2023/02/04 03:35:28;;;;;;;3.53;0.90;;;9.00;99.90;;;;;;4955598;28;20042;-74
2023/02/04 03:37:54;;;;;;;1.48;0.88;;;8.90;99.90;;;;;;4957668;28;20042;-74
2023/02/04 03:40:19;;;;;;;9.38;0.77;;;8.80;99.90;;;;;;4971265;28;20034;-73
2023/02/04 03:42:45;;;;;;;6.50;0.60;;;8.90;99.90;;;;;;4957414;28;20497;-74
2023/02/04 03:45:11;;;;;;;7.38;1.95;;;8.90;99.90;;;;;;4970856;28;20028;-73
2023/02/04 03:47:37;;;;;;;6.70;1.52;;;8.90;99.90;;;;;;4974469;28;20027;-73
2023/02/04 03:50:04;;;;;;;9.77;3.15;;;8.90;99.90;;;;;;4973938;28;20027;-73
2023/02/04 03:52:29;;;;;;;1.80;0.88;;;8.90;99.90;;;;;;4941179;28;20034;-74
2023/02/04 03:54:55;;;;;;;5.32;1.63;;;8.80;99.90;;;;;;4953791;28;20046;-73
2023/02/04 03:57:21;;;;;;;8.18;1.15;;;8.80;99.90;;;;;;4964871;28;20613;-74
2023/02/04 03:59:46;;;;;;;1.08;0.70;;;8.70;99.90;;;;;;4971942;28;20041;-73
2023/02/04 04:02:12;;;;;;;5.60;1.15;;;8.70;99.90;;;;;;4970264;28;20067;-73
2023/02/04 04:04:37;;;;;;;4.30;1.35;;;8.70;99.90;;;;;;4971466;28;20023;-74
2023/02/04 04:07:03;;;;;;;1.27;0.82;;;8.60;99.90;;;;;;4971940;28;20487;-74
2023/02/04 04:09:29;;;;;;;5.13;0.52;;;8.60;99.90;;;;;;4973667;28;20086;-74
2023/02/04 04:11:54;;;;;;;5.82;1.27;;;8.60;99.90;;;;;;4956625;28;20042;-74
2023/02/04 04:14:20;;;;;;;2.08;1.13;;;8.60;99.90;;;;;;4973640;28;20039;-74
2023/02/04 04:16:46;;;;;;;9.63;1.25;;;8.60;99.90;;;;;;4956248;28;20491;-74
2023/02/04 04:19:12;;;;;;;1.00;0.77;;;8.60;99.90;;;;;;4973781;28;20064;-74
2023/02/04 04:21:37;;;;;;;5.13;1.25;;;8.50;99.90;;;;;;4973066;28;20038;-74
2023/02/04 04:24:03;;;;;;;5.32;1.27;;;8.50;99.90;;;;;;4973178;28;20163;-74
2023/02/04 04:26:29;;;;;;;10.43;0.63;;;8.50;99.90;;;;;;4970678;28;20042;-74
2023/02/04 04:28:54;;;;;;;5.70;0.98;;;8.50;99.90;;;;;;4973534;28;20418;-74
2023/02/04 04:31:20;;;;;;;8.15;1.33;;;8.50;99.90;;;;;;4970233;28;20695;-74
2023/02/04 04:33:46;;;;;;;9.85;1.25;;;8.50;99.90;;;;;;4955946;28;20042;-74
2023/02/04 04:36:11;;;;;;;4.07;1.10;;;8.50;99.90;;;;;;4970109;28;20406;-74
2023/02/04 04:38:37;;;;;;;6.32;0.77;;;8.50;99.90;;;;;;4973204;28;20038;-74
2023/02/04 04:41:03;;;;;;;6.20;1.42;;;8.50;99.90;;;;;;4972226;28;20043;-73
2023/02/04 04:43:29;;;;;;;7.30;1.77;;;8.40;99.90;;;;;;4955671;28;20039;-74
2023/02/04 04:45:54;;;;;;;7.32;1.20;;;8.40;99.90;;;;;;4969625;28;20395;-74
2023/02/04 04:48:20;;;;;;;7.28;1.58;;;8.40;99.90;;;;;;4972692;28;20041;-73
2023/02/04 04:50:46;;;;;;;4.43;0.85;;;8.30;99.90;;;;;;4972012;28;20035;-72
2023/02/04 04:53:12;;;;;;;3.42;1.50;;;8.30;99.90;;;;;;4972860;28;20031;-73
2023/02/04 04:55:38;;;;;;;12.30;1.98;;;8.30;99.90;;;;;;4969195;28;20118;-72
2023/02/04 04:58:06;;;;;;;2.67;1.08;;;8.20;99.90;;;;;;4955515;28;20402;-73
2023/02/04 05:00:31;;;;;;;3.75;1.05;;;8.10;99.90;;;;;;4954937;28;20067;-73
2023/02/04 05:02:57;;;;;;;3.38;0.77;;;8.10;99.90;;;;;;4972646;28;20535;-72
2023/02/04 05:05:23;;;;;;;2.80;1.08;;;8.20;99.90;;;;;;4969064;28;20170;-73
2023/02/04 05:07:48;;;;;;;6.55;1.20;;;8.10;99.90;;;;;;4972819;28;20482;-72
2023/02/04 05:10:15;;;;;;;7.68;0.82;;;8.20;99.90;;;;;;4954716;28;20042;-72
2023/02/04 05:12:41;;;;;;;3.40;1.35;;;8.30;99.90;;;;;;4972480;28;20027;-73
2023/02/04 05:15:07;;;;;;;3.05;0.80;;;8.30;99.90;;;;;;4968650;28;20031;-73
2023/02/04 05:17:33;;;;;;;4.55;1.92;;;8.20;99.90;;;;;;4972491;28;20038;-73
2023/02/04 05:19:59;;;;;;;6.78;1.55;;;8.20;99.90;;;;;;4954585;28;20039;-73
2023/02/04 05:22:24;;;;;;;3.95;2.10;;;8.10;99.90;;;;;;4955305;28;20549;-72
2023/02/04 05:24:50;;;;;;;2.95;0.93;;;8.00;99.90;;;;;;4971323;28;20699;-73
2023/02/04 05:27:16;;;;;;;12.15;2.05;;;8.00;99.90;;;;;;4972172;28;20029;-74
2023/02/04 05:29:41;;;;;;;2.67;1.50;;;8.00;99.90;;;;;;4953215;28;20034;-73
2023/02/04 05:32:07;;;;;;;2.67;1.38;;;8.00;99.90;;;;;;4970863;28;20038;-72
2023/02/04 05:34:33;;;;;;;3.40;1.25;;;8.00;99.90;;;;;;4970969;28;20276;-72
2023/02/04 05:36:58;;;;;;;5.30;0.85;;;8.00;99.90;;;;;;4969467;28;20367;-73
2023/02/04 05:39:24;;;;;;;6.60;1.25;;;8.00;99.90;;;;;;4972426;28;20069;-72
2023/02/04 05:41:50;;;;;;;3.00;0.80;;;8.00;99.90;;;;;;4968651;28;20085;-73
2023/02/04 05:44:15;;;;;;;2.00;0.98;;;8.00;99.90;;;;;;4971760;28;20058;-73
2023/02/04 05:46:41;;;;;;;6.93;1.58;;;8.00;99.90;;;;;;4968433;28;20038;-73
2023/02/04 05:49:07;;;;;;;4.93;1.27;;;8.00;99.90;;;;;;4971916;28;20026;-72
2023/02/04 05:51:32;;;;;;;1.73;0.90;;;7.90;99.90;;;;;;4968550;28;20149;-73
2023/02/04 05:53:58;;;;;;;3.63;1.48;;;7.90;99.90;;;;;;4972085;28;20118;-73
2023/02/04 05:56:24;;;;;;;1.30;0.82;;;7.70;99.90;;;;;;4970594;28;20031;-73
2023/02/04 05:58:50;;;;;;;5.43;2.35;;;7.70;99.90;;;;;;4954158;28;20394;-73
2023/02/04 06:01:16;;;;;;;2.85;1.38;;;7.70;99.90;;;;;;4953941;28;20045;-74
2023/02/04 06:03:42;;;;;;;4.93;1.52;;;7.80;99.90;;;;;;4954225;28;20022;-74
2023/02/04 06:06:08;;;;;;;2.42;0.88;;;7.80;99.90;;;;;;4968220;28;20446;-73
2023/02/04 06:08:33;;;;;;;1.77;1.13;;;7.80;99.90;;;;;;4971571;28;20039;-73
2023/02/04 06:10:59;;;;;;;1.58;1.23;;;7.80;99.90;;;;;;4967960;28;20145;-74
2023/02/04 06:13:25;;;;;;;2.95;0.80;;;7.80;99.90;;;;;;4954462;28;20031;-73
2023/02/04 06:15:50;;;;;;;1.83;0.75;;;7.80;99.90;;;;;;4968101;28;20050;-74
2023/02/04 06:18:16;;;;;;;9.48;1.10;;;7.70;99.90;;;;;;4971760;28;20046;-73
2023/02/04 06:20:42;;;;;;;3.38;1.55;;;7.70;99.90;;;;;;4970728;28;20043;-74
2023/02/04 06:23:08;;;;;;;4.93;1.23;;;7.60;99.90;;;;;;4971544;28;20051;-73
2023/02/04 06:25:34;;;;;;;10.98;1.88;;;7.60;99.90;;;;;;4967770;28;20034;-73
2023/02/04 06:27:59;;;;;;;5.45;1.17;;;7.60;99.90;;;;;;4954090;28;20046;-73
2023/02/04 06:30:25;;;;;;;2.10;1.10;;;7.60;99.90;;;;;;4968396;28;20234;-73
2023/02/04 06:32:51;;;;;;;3.60;1.15;;;7.60;99.90;;;;;;4971542;28;20088;-73
2023/02/04 06:35:17;;;;;;;3.55;1.52;;;7.60;99.90;;;;;;4968012;28;20027;-73
2023/02/04 06:37:43;;;;;;;3.88;0.95;;;7.50;99.90;;;;;;4971468;28;20043;-73
2023/02/04 06:40:10;;;;;;;5.28;1.17;;;7.50;99.90;;;;;;4970591;28;20031;-74
2023/02/04 06:42:36;;;;;;;10.32;1.25;;;7.40;99.90;;;;;;4971120;28;20031;-74
2023/02/04 06:45:02;;;;;;;9.20;2.00;;;7.40;99.90;;;;;;4953613;28;20041;-73
2023/02/04 06:47:28;;;;;;;4.32;1.85;;;7.40;99.90;;;;;;4971505;28;20399;-73
2023/02/04 06:49:54;;;;;;;5.45;1.02;;;7.40;99.90;;;;;;4968154;28;20023;-73
2023/02/04 06:52:19;;;;;;;1.63;1.48;;;7.40;99.90;;;;;;4971419;28;20034;-73
2023/02/04 06:54:45;;;;;;;1.90;1.35;;;7.40;99.90;;;;;;4970103;28;20039;-73
2023/02/04 06:57:11;;;;;;;6.25;1.33;;;7.50;99.90;;;;;;4971097;28;20035;-73
2023/02/04 06:59:39;;;;;;;2.80;1.25;;;7.40;99.90;;;;;;4970154;28;20061;-74
2023/02/04 07:02:06;;;;;;;7.40;1.52;;;7.40;99.90;;;;;;4956424;28;20031;-73
2023/02/04 07:04:34;;;;;;;6.18;1.75;;;7.40;99.90;;;;;;4970164;28;20029;-74
2023/02/04 07:07:00;;;;;;;4.72;1.90;;;7.40;99.90;;;;;;4968722;28;20037;-73
2023/02/04 07:09:26;;;;;;;10.68;1.77;;;7.30;99.90;;;;;;4971934;28;20027;-74
2023/02/04 07:11:52;;;;;;;8.25;1.73;;;7.40;99.90;;;;;;4957277;28;20066;-74
2023/02/04 07:14:18;;;;;;;8.27;1.63;;;7.30;99.90;;;;;;4957162;28;20446;-73
2023/02/04 07:16:44;;;;;;;3.05;1.48;;;7.30;99.90;;;;;;4956959;28;20517;-69
2023/02/04 07:19:10;;;;;;;5.60;1.73;;;7.30;99.90;;;;;;4957299;28;20031;-74
2023/02/04 07:21:36;;;;;;;6.30;1.17;;;7.40;99.90;;;;;;4956799;28;20110;-73
2023/02/04 07:24:02;;;;;;;5.80;1.35;;;7.40;99.90;;;;;;4974377;28;20031;-72
2023/02/04 07:26:27;;;;;;;8.40;2.50;;;7.50;99.90;;;;;;4971236;28;20410;-73
2023/02/04 07:28:53;;;;;;;8.23;2.13;;;7.50;99.90;;;;;;4974726;28;20487;-73
2023/02/04 07:31:19;;;;;;;2.60;0.90;;;7.60;99.90;;;;;;4971172;28;20041;-73
2023/02/04 07:33:44;;;;;;;13.00;2.10;;;7.60;99.90;;;;;;4956733;28;20035;-72
2023/02/04 07:36:10;;;;;;;6.20;2.22;;;7.60;99.90;;;;;;4967870;28;20042;-70
2023/02/04 07:38:36;;;;;;;1.98;1.17;;;7.70;99.90;;;;;;4974104;28;20395;-71
2023/02/04 07:41:01;;;;;;;6.25;2.08;;;7.70;99.90;;;;;;4961335;28;20043;-70
2023/02/04 07:43:27;;;;;;;4.32;1.50;;;7.70;99.90;;;;;;4955141;28;20376;-70
2023/02/04 07:45:53;;;;;;;10.90;2.55;;;7.60;99.90;;;;;;4974085;28;20031;-69
2023/02/04 07:48:18;;;;;;;5.25;1.70;;;7.60;99.90;;;;;;4954618;28;20399;-71
2023/02/04 07:50:44;;;;;;;9.05;2.00;;;7.70;99.90;;;;;;4974107;28;20031;-72
2023/02/04 07:53:10;;;;;;;5.72;2.17;;;7.80;99.90;;;;;;4969548;28;20058;-72
2023/02/04 07:55:36;;;;;;;8.70;2.30;;;7.80;99.90;;;;;;4935049;28;20109;-72
2023/02/04 07:58:02;;;;;;;5.32;2.22;;;7.90;99.90;;;;;;4967506;28;20525;-71
2023/02/04 08:00:28;;;;;;;3.17;1.73;;;7.90;99.90;;;;;;4953662;28;20117;-71
2023/02/04 08:02:54;;;;;;;9.65;1.85;;;7.80;99.90;;;;;;4973679;28;20030;-70
2023/02/04 08:05:19;;;;;;;17.38;2.25;;;7.90;99.90;;;;;;4969241;28;20117;-69
2023/02/04 08:07:45;;;;;;;8.30;2.60;;;8.00;99.90;;;;;;4973616;28;20426;-70
2023/02/04 08:10:12;;;;;;;11.65;2.60;;;8.00;99.90;;;;;;4972845;28;20047;-70
2023/02/04 08:12:37;;;;;;;8.98;2.38;;;8.00;99.90;;;;;;4968008;28;20106;-70
2023/02/04 08:15:06;;;;;;;6.10;1.25;;;8.00;99.90;;;;;;4972114;28;20112;-70
2023/02/04 08:17:32;;;;;;;12.05;1.88;;;8.00;99.90;;;;;;4973776;28;20113;-70
2023/02/04 08:19:57;;;;;;;3.63;1.80;;;8.10;99.90;;;;;;4973246;28;20594;-70
2023/02/04 08:22:23;;;;;;;11.40;3.60;;;8.20;99.90;;;;;;4972633;28;20026;-70
2023/02/04 08:24:49;;;;;;;13.05;2.60;;;8.20;99.90;;;;;;4955492;28;20118;-70
2023/02/04 08:27:14;;;;;;;4.07;1.95;;;8.20;99.90;;;;;;4955810;28;20030;-69
2023/02/04 08:29:40;;;;;;;11.27;1.75;;;8.30;99.90;;;;;;4956164;28;20035;-69
2023/02/04 08:32:06;;;;;;;3.97;1.77;;;8.30;99.90;;;;;;4972984;28;20085;-70
2023/02/04 08:34:31;;;;;;;12.77;1.75;;;8.30;99.90;;;;;;4972270;28;20094;-69
2023/02/04 08:36:57;;;;;;;14.50;2.28;;;8.40;99.90;;;;;;4970444;28;20037;-69
2023/02/04 08:39:23;;;;;;;5.15;1.17;;;8.50;99.90;;;;;;4972848;28;20031;-69
2023/02/04 08:41:50;;;;;;;9.15;2.00;;;8.50;99.90;;;;;;4967804;28;20694;-66
2023/02/04 08:44:16;;;;;;;1.92;0.93;;;8.60;99.90;;;;;;4972542;28;20027;-69
2023/02/04 08:46:42;;;;;;;2.38;1.35;;;8.60;99.90;;;;;;4955323;28;20038;-69
2023/02/04 08:49:08;;;;;;;3.17;1.33;;;8.60;99.90;;;;;;4972963;28;20030;-69
2023/02/04 08:51:34;;;;;;;9.52;3.65;;;8.70;99.90;;;;;;4968814;28;20059;-74
2023/02/04 08:53:59;;;;;;;12.13;2.72;;;8.70;99.90;;;;;;4968434;28;20166;-74
2023/02/04 08:56:25;;;;;;;7.22;1.70;;;8.70;99.90;;;;;;4955218;28;20041;-74
2023/02/04 08:58:51;;;;;;;5.55;1.98;;;8.70;99.90;;;;;;4972996;28;20031;-74
2023/02/04 09:01:18;;;;;;;13.90;3.28;;;8.70;99.90;;;;;;4968316;28;20474;-77
2023/02/04 09:03:44;;;;;;;10.05;2.28;;;8.70;99.90;;;;;;4972203;28;20034;-71
2023/02/04 09:06:10;;;;;;;10.35;1.83;;;8.80;99.90;;;;;;4968308;28;20506;-74
2023/02/04 09:08:36;;;;;;;10.88;2.00;;;8.80;99.90;;;;;;4972517;28;20023;-73
2023/02/04 09:11:03;;;;;;;10.95;2.50;;;8.80;99.90;;;;;;4970624;28;20030;-73
2023/02/04 09:13:30;;;;;;;6.43;1.40;;;8.90;99.90;;;;;;4955163;28;20466;-72
2023/02/04 09:15:56;;;;;;;3.35;1.55;;;9.00;99.90;;;;;;4938267;28;20575;-72
2023/02/04 09:18:23;;;;;;;5.47;1.33;;;9.00;99.90;;;;;;4972511;28;20107;-75
2023/02/04 09:20:49;;;;;;;17.45;2.08;;;9.10;99.90;;;;;;4954895;28;20031;-74
2023/02/04 09:23:15;;;;;;;14.13;1.83;;;9.10;99.90;;;;;;4954880;28;20042;-75
2023/02/04 09:25:43;;;;;;;4.35;1.25;;;9.20;99.90;;;;;;4972152;28;20031;-73
2023/02/04 09:28:11;;;;;;;15.75;2.95;;;9.10;99.90;;;;;;4954816;28;20042;-71
2023/02/04 09:30:42;;;;;;;9.63;2.22;;;9.20;99.90;;;;;;4955205;28;20395;-73
2023/02/04 09:33:10;;;;;;;8.75;1.60;;;9.20;99.90;;;;;;4969931;28;20058;-71
2023/02/04 09:35:36;;;;;;;7.60;1.70;;;9.30;99.90;;;;;;4954542;28;20038;-72
2023/02/04 09:38:02;;;;;;;12.98;2.15;;;9.40;99.90;;;;;;4963297;28;20559;-72
2023/02/04 09:40:33;;;;;;;2.55;1.33;;;9.50;99.90;;;;;;4971625;28;20553;-70
2023/02/04 09:43:00;;;;;;;8.35;2.35;;;9.20;99.90;;;;;;4954721;28;20041;-71
2023/02/04 09:45:29;;;;;;;10.52;1.48;;;9.20;99.90;;;;;;4954592;28;20018;-73
2023/02/04 09:48:01;;;;;;;7.38;1.80;;;9.40;99.90;;;;;;4971199;28;20447;-67
2023/02/04 09:50:28;;;;;;;4.90;1.27;;;9.70;99.90;;;;;;4955182;28;20030;-71
2023/02/04 09:52:58;;;;;;;12.07;2.08;;;9.80;99.90;;;;;;4964157;28;20039;-71
2023/02/04 09:55:33;;;;;;;4.70;1.20;;;9.90;99.90;;;;;;4946991;28;20114;-71
2023/02/04 09:57:59;;;;;;;13.30;1.60;;;9.90;99.90;;;;;;4954696;28;20121;-72
2023/02/04 10:00:28;;;;;;;10.13;1.58;;;9.70;99.90;;;;;;4971844;28;20027;-71
2023/02/04 10:03:02;;;;;;;5.45;1.20;;;10.00;99.90;;;;;;4953989;28;20038;-72
2023/02/04 10:05:32;;;;;;;4.43;0.60;;;10.00;99.90;;;;;;4947452;28;20031;-72
2023/02/04 10:07:58;;;;;;;8.18;2.08;;;10.10;99.90;;;;;;4943649;28;20034;-71
2023/02/04 10:10:26;;;;;;;5.75;2.28;;;10.30;99.90;;;;;;4971468;28;20027;-72
2023/02/04 10:13:00;;;;;;;9.80;1.25;;;10.40;99.90;;;;;;4954199;28;20093;-71
2023/02/04 10:15:27;;;;;;;6.72;1.13;;;10.30;99.90;;;;;;4963236;28;20562;-71
2023/02/04 10:18:00;;;;;;;5.38;1.40;;;10.60;99.90;;;;;;4953451;28;20519;-70
2023/02/04 10:20:26;;;;;;;2.28;0.70;;;10.50;99.90;;;;;;4947669;28;20408;-71
2023/02/04 10:22:54;;;;;;;5.40;1.52;;;10.50;99.90;;;;;;4964392;28;20035;-71
2023/02/04 10:25:23;;;;;;;8.10;1.80;;;10.50;99.90;;;;;;4946073;28;20438;-73
2023/02/04 10:27:58;;;;;;;4.32;1.98;;;10.60;99.90;;;;;;4970781;28;20031;-71
2023/02/04 10:30:40;;;;;;;5.45;0.98;;;10.80;99.90;;;;;;4964276;28;20490;-71
2023/02/04 10:33:24;;;;;;;2.65;1.02;;;10.40;99.90;;;;;;4970391;28;20549;-69
2023/02/04 10:35:52;;;;;;;8.20;1.35;;;10.00;99.90;;;;;;4954308;28;20039;-71
2023/02/04 10:38:19;;;;;;;6.95;1.98;;;10.20;99.90;;;;;;4983711;23;20098;-64
2023/02/04 10:40:46;;;;;;;10.98;1.15;;;10.20;99.90;;;;;;4971083;28;20046;-63
2023/02/04 10:43:22;;;;;;;6.75;1.13;;;9.80;99.90;;;;;;4984922;28;20026;-64
2023/02/04 10:45:58;;;;;;;4.97;1.65;;;10.10;99.90;;;;;;4974106;28;20493;-64
2023/02/04 10:48:24;;;;;;;3.65;1.58;;;10.20;99.90;;;;;;4973086;28;20049;-64
2023/02/04 10:50:50;;;;;;;12.32;1.65;;;10.20;99.90;;;;;;4971858;28;20038;-65
2023/02/04 10:56:20;;;;;;;14.32;2.15;;;10.10;99.90;;;;;;4974938;28;20031;-64
2023/02/04 10:58:46;;;;;;;3.88;1.52;;;10.50;99.90;;;;;;4977831;28;20034;-64
2023/02/04 11:01:15;;;;;;;6.03;1.23;;;10.80;99.90;;;;;;4969528;28;20057;-64
2023/02/04 11:03:42;;;;;;;9.57;1.80;;;10.90;99.90;;;;;;4968362;28;20054;-64
2023/02/04 11:06:16;;;;;;;6.32;1.42;;;10.80;99.90;;;;;;4968105;28;20018;-64
2023/02/04 11:08:42;;;;;;;3.00;1.15;;;11.00;99.90;;;;;;4972055;28;20119;-63
2023/02/04 11:11:21;;;;;;;11.70;1.02;;;11.00;99.90;;;;;;4970758;28;20055;-64
2023/02/04 11:13:49;;;;;;;15.77;1.73;;;10.80;99.90;;;;;;4974434;28;20114;-63
2023/02/04 11:16:31;;;;;;;9.57;1.88;;;10.70;99.90;;;;;;4970662;28;20585;-64
2023/02/04 11:19:11;;;;;;;3.05;1.20;;;10.30;99.90;;;;;;4971742;28;20482;-63
2023/02/04 11:21:37;;;;;;;7.93;1.02;;;10.30;99.90;;;;;;4964564;28;20046;-66
2023/02/04 11:24:14;;;;;;;5.90;0.82;;;10.30;99.90;;;;;;4968070;28;20031;-64
2023/02/04 11:26:46;;;;;;;6.90;2.00;;;10.50;99.90;;;;;;4972855;28;20050;-64
2023/02/04 11:29:14;;;;;;;5.85;1.33;;;10.90;99.90;;;;;;4970628;28;20023;-64
2023/02/04 11:31:48;;;;;;;11.57;1.33;;;11.30;99.90;;;;;;4971855;28;20455;-67
2023/02/04 11:34:13;;;;;;;5.72;1.27;;;12.10;99.90;;;;;;4969045;28;20035;-63
2023/02/04 11:36:55;;;;;;;6.20;1.77;;;13.90;98.40;;;;;;4974186;28;20050;-63
2023/02/04 11:39:25;;;;;;;8.57;0.98;;;14.70;96.90;;;;;;4965908;28;20043;-63
2023/02/04 11:41:51;;;;;;;6.28;1.33;;;15.80;89.10;;;;;;4974675;28;20042;-64
2023/02/04 11:44:18;;;;;;;7.10;1.55;;;15.50;91.80;;;;;;4965324;28;20042;-63
2023/02/04 11:46:55;;;;;;;2.35;1.17;;;15.70;91.00;;;;;;4962680;28;20065;-64
2023/02/04 11:49:25;;;;;;;4.05;1.45;;;14.90;92.20;;;;;;4962571;28;20126;-63
2023/02/04 11:52:01;;;;;;;1.98;0.77;;;14.00;92.90;;;;;;4969348;28;20063;-63
2023/02/04 11:54:27;;;;;;;5.47;1.23;;;14.60;93.80;;;;;;4964996;28;20046;-63
2023/02/04 11:56:58;;;;;;;3.10;1.10;;;14.50;92.60;;;;;;4972743;28;20030;-63
2023/02/04 11:59:24;;;;;;;9.63;1.48;;;15.30;92.10;;;;;;4946397;28;20105;-65
2023/02/04 12:01:49;;;;;;;2.75;1.02;;;16.30;89.60;;;;;;4959886;28;20601;-65
2023/02/04 12:04:24;;;;;;;9.43;2.42;;;15.60;89.50;;;;;;4955080;28;20031;-63
2023/02/04 12:07:03;;;;;;;4.70;0.82;;;15.00;90.20;;;;;;4970763;28;20034;-64
2023/02/04 12:09:31;;;;;;;5.93;1.30;;;14.10;91.60;;;;;;4963895;28;20039;-62
2023/02/04 12:11:59;;;;;;;5.00;1.17;;;12.20;94.90;;;;;;4960127;28;20023;-62
2023/02/04 12:14:35;;;;;;;4.20;1.23;;;11.90;98.40;;;;;;4960987;28;20118;-61
2023/02/04 12:17:16;;;;;;;3.50;0.73;;;11.30;99.00;;;;;;4963603;28;20093;-63
2023/02/04 12:19:42;;;;;;;5.88;0.90;;;10.70;99.90;;;;;;4972516;28;20041;-62
2023/02/04 12:22:08;;;;;;;10.30;3.75;;;10.60;99.90;;;;;;4964901;28;20038;-62
2023/02/04 12:24:34;;;;;;;5.30;1.30;;;10.60;99.90;;;;;;4960243;28;20043;-62
2023/02/04 12:27:00;;;;;;;5.63;1.58;;;10.30;99.90;;;;;;4959645;28;20105;-60
2023/02/04 12:29:25;;;;;;;2.33;0.77;;;10.30;99.90;;;;;;4958198;28;20487;-62
2023/02/04 12:31:51;;;;;;;3.08;0.90;;;10.70;99.90;;;;;;4958319;28;20499;-63
2023/02/04 12:34:17;;;;;;;7.45;1.25;;;11.20;99.90;;;;;;4962243;28;20651;-63
2023/02/04 12:36:43;;;;;;;2.42;0.75;;;11.40;99.90;;;;;;4968751;28;20050;-63
2023/02/04 12:39:11;;;;;;;4.32;0.85;;;11.30;99.90;;;;;;4971561;28;20071;-63
2023/02/04 12:41:37;;;;;;;4.32;0.80;;;11.50;98.80;;;;;;4963968;28;20074;-63
2023/02/04 12:44:03;;;;;;;6.70;0.65;;;11.50;98.30;;;;;;4966724;28;20121;-62
2023/02/04 12:46:29;;;;;;;4.50;1.48;;;10.60;98.50;;;;;;4973006;28;20105;-62
2023/02/04 12:48:55;;;;;;;5.18;0.60;;;11.40;98.70;;;;;;4972473;28;20027;-62
2023/02/04 12:51:21;;;;;;;1.20;0.30;;;12.00;96.70;;;;;;4973058;28;20109;-62
2023/02/04 12:53:48;;;;;;;4.32;1.10;;;11.70;96.80;;;;;;4972249;28;20039;-62
2023/02/04 12:56:14;;;;;;;7.72;1.50;;;12.00;96.70;;;;;;4964844;28;20034;-62